ウィレムスタッド の空港の天気 - METARとTAF

キュラソー/ハト国際空港 ( TNCC / CUR ) - ウィレムスタッド (キュラソー島)
飛行場実況気象(Metar)
観測時間07/15 06:00 AST (07/15 10:00 UTC)
風向・風速東南東 4m/s
視程10km以上
天気現象
少しの雲 雲底高度 490m
気温27℃
湿度79%
気圧1013hPa
METARTNCC 151000Z 11008KT 9999 FEW016 27/23 Q1013 NOSIG
過去の天気等 Google飛行場航空写真 Wunderground天気予報

過去48時間のMETAR

飛行場予報(TAF)
発表時間: 7/15 01:15 AST (7/15 05:15 UTC)
予報対象時間: 15日2時 AST ~ 16日2時 AST
風向・風速東 4m/s
視程10km以上
全天の4割程度の雲 雲底高度 610m
15日9時 AST ~ 15日11時 AST に徐々に
風向・風速東 7m/s
TAF TNCC 150515Z 1506/1606 10008KT 9999 SCT020
BECMG 1513/1515 09014KT